sensor_id;sensor_type;location;lat;lon;timestamp;pressure;altitude;pressure_sealevel;temperature;humidity
54628;BME280;40525;55.926;21.066;2023-03-18T00:01:10;101992.49;;;4.28;66.98
54628;BME280;40525;55.926;21.066;2023-03-18T00:03:37;101989.36;;;4.26;66.81
54628;BME280;40525;55.926;21.066;2023-03-18T00:06:10;101992.66;;;4.26;66.83
54628;BME280;40525;55.926;21.066;2023-03-18T00:08:39;101987.45;;;4.25;66.69
54628;BME280;40525;55.926;21.066;2023-03-18T00:11:08;101982.92;;;4.26;66.43
54628;BME280;40525;55.926;21.066;2023-03-18T00:13:37;101984.83;;;4.26;66.65
54628;BME280;40525;55.926;21.066;2023-03-18T00:16:07;101985.88;;;4.24;66.53
54628;BME280;40525;55.926;21.066;2023-03-18T00:18:37;101985.53;;;4.21;66.57
54628;BME280;40525;55.926;21.066;2023-03-18T00:21:04;101977.36;;;4.19;66.21
54628;BME280;40525;55.926;21.066;2023-03-18T00:23:33;101975.95;;;4.17;65.91
54628;BME280;40525;55.926;21.066;2023-03-18T00:26:00;101969.86;;;4.16;65.83
54628;BME280;40525;55.926;21.066;2023-03-18T00:28:29;101965.52;;;4.14;65.71
54628;BME280;40525;55.926;21.066;2023-03-18T00:31:10;101962.02;;;4.12;65.25
54628;BME280;40525;55.926;21.066;2023-03-18T00:33:40;101956.98;;;4.11;65.26
54628;BME280;40525;55.926;21.066;2023-03-18T00:36:13;101957.33;;;4.10;65.01
54628;BME280;40525;55.926;21.066;2023-03-18T00:38:42;101951.92;;;4.10;64.96
54628;BME280;40525;55.926;21.066;2023-03-18T00:41:09;101954.02;;;4.09;65.13
54628;BME280;40525;55.926;21.066;2023-03-18T00:43:43;101957.50;;;4.07;65.20
54628;BME280;40525;55.926;21.066;2023-03-18T00:48:48;101961.15;;;4.07;64.78
54628;BME280;40525;55.926;21.066;2023-03-18T00:51:15;101954.20;;;4.09;64.86
54628;BME280;40525;55.926;21.066;2023-03-18T00:53:46;101960.11;;;4.10;64.97
54628;BME280;40525;55.926;21.066;2023-03-18T00:56:15;101958.70;;;4.10;64.67
54628;BME280;40525;55.926;21.066;2023-03-18T00:58:43;101959.59;;;4.11;64.93
54628;BME280;40525;55.926;21.066;2023-03-18T01:01:11;101956.11;;;4.08;63.91
54628;BME280;40525;55.926;21.066;2023-03-18T01:03:41;101959.06;;;4.06;64.09
54628;BME280;40525;55.926;21.066;2023-03-18T01:06:11;101958.54;;;4.05;64.15
54628;BME280;40525;55.926;21.066;2023-03-18T01:08:39;101957.65;;;4.05;64.55
54628;BME280;40525;55.926;21.066;2023-03-18T01:11:09;101956.61;;;4.03;64.36
54628;BME280;40525;55.926;21.066;2023-03-18T01:13:37;101960.27;;;4.02;64.36
54628;BME280;40525;55.926;21.066;2023-03-18T01:16:07;101958.36;;;4.01;64.00
54628;BME280;40525;55.926;21.066;2023-03-18T01:18:35;101958.53;;;3.97;63.46
54628;BME280;40525;55.926;21.066;2023-03-18T01:21:03;101958.52;;;3.95;63.57
54628;BME280;40525;55.926;21.066;2023-03-18T01:23:35;101963.05;;;3.92;63.79
54628;BME280;40525;55.926;21.066;2023-03-18T01:26:03;101968.41;;;3.88;63.78
54628;BME280;40525;55.926;21.066;2023-03-18T01:28:30;101968.42;;;3.85;63.71
54628;BME280;40525;55.926;21.066;2023-03-18T01:30:59;101969.10;;;3.83;63.50
54628;BME280;40525;55.926;21.066;2023-03-18T01:33:28;101966.30;;;3.79;63.43
54628;BME280;40525;55.926;21.066;2023-03-18T01:35:58;101968.23;;;3.77;63.74
54628;BME280;40525;55.926;21.066;2023-03-18T01:38:28;101968.21;;;3.75;63.77
54628;BME280;40525;55.926;21.066;2023-03-18T01:41:07;101968.55;;;3.72;63.89
54628;BME280;40525;55.926;21.066;2023-03-18T01:43:38;101963.67;;;3.70;63.91
54628;BME280;40525;55.926;21.066;2023-03-18T01:46:33;101958.98;;;3.68;63.61
54628;BME280;40525;55.926;21.066;2023-03-18T01:49:06;101957.94;;;3.66;64.08
54628;BME280;40525;55.926;21.066;2023-03-18T01:51:37;101953.05;;;3.63;63.50
54628;BME280;40525;55.926;21.066;2023-03-18T01:54:07;101946.61;;;3.59;63.32
54628;BME280;40525;55.926;21.066;2023-03-18T01:56:36;101951.81;;;3.56;63.24
54628;BME280;40525;55.926;21.066;2023-03-18T01:59:07;101952.85;;;3.52;63.23
54628;BME280;40525;55.926;21.066;2023-03-18T02:01:52;101953.54;;;3.51;63.72
54628;BME280;40525;55.926;21.066;2023-03-18T02:04:25;101953.17;;;3.48;63.03
54628;BME280;40525;55.926;21.066;2023-03-18T02:06:58;101956.83;;;3.46;63.12
54628;BME280;40525;55.926;21.066;2023-03-18T02:09:26;101951.95;;;3.44;63.28
54628;BME280;40525;55.926;21.066;2023-03-18T02:11:53;101950.71;;;3.42;63.29
54628;BME280;40525;55.926;21.066;2023-03-18T02:14:24;101950.19;;;3.42;63.50
54628;BME280;40525;55.926;21.066;2023-03-18T02:17:03;101949.84;;;3.40;63.42
54628;BME280;40525;55.926;21.066;2023-03-18T02:19:48;101952.09;;;3.38;63.07
54628;BME280;40525;55.926;21.066;2023-03-18T02:22:29;101946.70;;;3.34;63.41
54628;BME280;40525;55.926;21.066;2023-03-18T02:25:16;101947.55;;;3.32;63.01
54628;BME280;40525;55.926;21.066;2023-03-18T02:27:51;101945.29;;;3.31;63.27
54628;BME280;40525;55.926;21.066;2023-03-18T02:30:25;101948.57;;;3.28;63.43
54628;BME280;40525;55.926;21.066;2023-03-18T02:32:55;101948.21;;;3.26;63.51
54628;BME280;40525;55.926;21.066;2023-03-18T02:35:24;101943.17;;;3.24;63.59
54628;BME280;40525;55.926;21.066;2023-03-18T02:37:53;101945.77;;;3.20;63.36
54628;BME280;40525;55.926;21.066;2023-03-18T02:40:23;101946.44;;;3.18;63.48
54628;BME280;40525;55.926;21.066;2023-03-18T02:42:51;101953.02;;;3.15;63.44
54628;BME280;40525;55.926;21.066;2023-03-18T02:48:10;101947.11;;;3.10;63.59
54628;BME280;40525;55.926;21.066;2023-03-18T02:50:41;101946.57;;;3.08;63.24
54628;BME280;40525;55.926;21.066;2023-03-18T02:53:13;101946.21;;;3.08;63.50
54628;BME280;40525;55.926;21.066;2023-03-18T02:55:41;101945.86;;;3.06;63.56
54628;BME280;40525;55.926;21.066;2023-03-18T02:58:10;101946.73;;;3.05;63.78
54628;BME280;40525;55.926;21.066;2023-03-18T03:00:38;101947.42;;;3.04;63.58
54628;BME280;40525;55.926;21.066;2023-03-18T03:03:06;101949.84;;;3.01;63.43
54628;BME280;40525;55.926;21.066;2023-03-18T03:05:34;101947.74;;;3.00;63.80
54628;BME280;40525;55.926;21.066;2023-03-18T03:08:02;101951.39;;;3.01;63.78
54628;BME280;40525;55.926;21.066;2023-03-18T03:10:32;101952.59;;;2.98;63.34
54628;BME280;40525;55.926;21.066;2023-03-18T03:12:59;101946.16;;;2.96;63.42
54628;BME280;40525;55.926;21.066;2023-03-18T03:15:28;101945.45;;;2.94;63.42
54628;BME280;40525;55.926;21.066;2023-03-18T03:17:57;101940.58;;;2.93;63.17
54628;BME280;40525;55.926;21.066;2023-03-18T03:20:26;101935.53;;;2.90;62.99
54628;BME280;40525;55.926;21.066;2023-03-18T03:22:56;101937.09;;;2.90;62.99
54628;BME280;40525;55.926;21.066;2023-03-18T03:25:24;101934.48;;;2.90;63.21
54628;BME280;40525;55.926;21.066;2023-03-18T03:27:54;101932.39;;;2.89;63.16
54628;BME280;40525;55.926;21.066;2023-03-18T03:30:23;101925.80;;;2.88;63.04
54628;BME280;40525;55.926;21.066;2023-03-18T03:32:52;101913.11;;;2.86;62.74
54628;BME280;40525;55.926;21.066;2023-03-18T03:35:19;101914.83;;;2.85;62.65
54628;BME280;40525;55.926;21.066;2023-03-18T03:37:46;101907.37;;;2.84;62.89
54628;BME280;40525;55.926;21.066;2023-03-18T03:40:16;101910.83;;;2.83;62.71
54628;BME280;40525;55.926;21.066;2023-03-18T03:42:44;101908.05;;;2.83;62.93
54628;BME280;40525;55.926;21.066;2023-03-18T03:45:14;101908.74;;;2.82;62.86
54628;BME280;40525;55.926;21.066;2023-03-18T03:47:42;101909.42;;;2.82;62.62
54628;BME280;40525;55.926;21.066;2023-03-18T03:50:12;101911.50;;;2.80;62.44
54628;BME280;40525;55.926;21.066;2023-03-18T03:52:40;101913.41;;;2.79;62.26
54628;BME280;40525;55.926;21.066;2023-03-18T03:55:12;101908.88;;;2.79;62.44
54628;BME280;40525;55.926;21.066;2023-03-18T03:57:40;101914.80;;;2.78;62.27
54628;BME280;40525;55.926;21.066;2023-03-18T04:00:13;101913.74;;;2.77;61.93
54628;BME280;40525;55.926;21.066;2023-03-18T04:02:47;101913.55;;;2.75;61.79
54628;BME280;40525;55.926;21.066;2023-03-18T04:05:16;101915.30;;;2.76;61.86
54628;BME280;40525;55.926;21.066;2023-03-18T04:07:45;101914.95;;;2.76;62.15
54628;BME280;40525;55.926;21.066;2023-03-18T04:10:16;101913.05;;;2.75;61.93
54628;BME280;40525;55.926;21.066;2023-03-18T04:12:44;101913.02;;;2.72;61.35
54628;BME280;40525;55.926;21.066;2023-03-18T04:15:15;101916.14;;;2.71;61.75
54628;BME280;40525;55.926;21.066;2023-03-18T04:17:44;101914.73;;;2.70;61.43
54628;BME280;40525;55.926;21.066;2023-03-18T04:20:15;101912.30;;;2.67;61.31
54628;BME280;40525;55.926;21.066;2023-03-18T04:22:43;101915.77;;;2.66;61.36
54628;BME280;40525;55.926;21.066;2023-03-18T04:25:12;101917.46;;;2.64;61.36
54628;BME280;40525;55.926;21.066;2023-03-18T04:27:41;101923.36;;;2.62;61.29
54628;BME280;40525;55.926;21.066;2023-03-18T04:30:11;101923.70;;;2.61;61.34
54628;BME280;40525;55.926;21.066;2023-03-18T04:33:05;101919.02;;;2.59;61.44
54628;BME280;40525;55.926;21.066;2023-03-18T04:35:32;101917.79;;;2.58;61.57
54628;BME280;40525;55.926;21.066;2023-03-18T04:38:01;101921.08;;;2.56;61.36
54628;BME280;40525;55.926;21.066;2023-03-18T04:40:28;101917.07;;;2.56;61.31
54628;BME280;40525;55.926;21.066;2023-03-18T04:42:55;101911.53;;;2.56;61.82
54628;BME280;40525;55.926;21.066;2023-03-18T04:45:24;101912.57;;;2.56;61.16
54628;BME280;40525;55.926;21.066;2023-03-18T04:47:53;101909.27;;;2.55;61.39
54628;BME280;40525;55.926;21.066;2023-03-18T04:50:22;101911.86;;;2.56;61.54
54628;BME280;40525;55.926;21.066;2023-03-18T04:52:49;101908.22;;;2.55;61.33
54628;BME280;40525;55.926;21.066;2023-03-18T04:55:21;101909.09;;;2.55;61.27
54628;BME280;40525;55.926;21.066;2023-03-18T04:57:49;101905.61;;;2.54;61.33
54628;BME280;40525;55.926;21.066;2023-03-18T05:00:19;101901.61;;;2.54;61.01
54628;BME280;40525;55.926;21.066;2023-03-18T05:02:54;101897.97;;;2.55;61.30
54628;BME280;40525;55.926;21.066;2023-03-18T05:05:23;101894.34;;;2.56;61.17
54628;BME280;40525;55.926;21.066;2023-03-18T05:07:51;101894.52;;;2.57;61.13
54628;BME280;40525;55.926;21.066;2023-03-18T05:10:19;101890.36;;;2.58;61.09
54628;BME280;40525;55.926;21.066;2023-03-18T05:12:46;101884.79;;;2.57;60.85
54628;BME280;40525;55.926;21.066;2023-03-18T05:15:17;101887.25;;;2.58;61.04
54628;BME280;40525;55.926;21.066;2023-03-18T05:17:48;101887.24;;;2.59;61.26
54628;BME280;40525;55.926;21.066;2023-03-18T05:20:16;101885.86;;;2.61;61.25
54628;BME280;40525;55.926;21.066;2023-03-18T05:22:45;101885.35;;;2.62;61.11
54628;BME280;40525;55.926;21.066;2023-03-18T05:25:18;101890.05;;;2.65;60.93
54628;BME280;40525;55.926;21.066;2023-03-18T05:27:46;101886.24;;;2.66;60.96
54628;BME280;40525;55.926;21.066;2023-03-18T05:30:22;101885.91;;;2.69;61.28
54628;BME280;40525;55.926;21.066;2023-03-18T05:32:52;101884.37;;;2.70;60.63
54628;BME280;40525;55.926;21.066;2023-03-18T05:35:25;101880.20;;;2.72;60.45
54628;BME280;40525;55.926;21.066;2023-03-18T05:37:53;101876.23;;;2.75;60.62
54628;BME280;40525;55.926;21.066;2023-03-18T05:40:21;101870.17;;;2.79;60.11
54628;BME280;40525;55.926;21.066;2023-03-18T05:43:00;101869.66;;;2.82;59.99
54628;BME280;40525;55.926;21.066;2023-03-18T05:45:33;101866.38;;;2.83;59.70
54628;BME280;40525;55.926;21.066;2023-03-18T05:48:07;101871.94;;;2.86;59.86
54628;BME280;40525;55.926;21.066;2023-03-18T05:50:40;101864.30;;;2.88;59.42
54628;BME280;40525;55.926;21.066;2023-03-18T05:53:10;101870.23;;;2.91;59.40
54628;BME280;40525;55.926;21.066;2023-03-18T05:55:40;101869.38;;;2.94;59.34
54628;BME280;40525;55.926;21.066;2023-03-18T05:58:08;101870.27;;;2.99;59.24
54628;BME280;40525;55.926;21.066;2023-03-18T06:00:36;101864.20;;;3.03;59.13
54628;BME280;40525;55.926;21.066;2023-03-18T06:03:04;101864.74;;;3.07;59.13
54628;BME280;40525;55.926;21.066;2023-03-18T06:05:32;101875.70;;;3.11;59.27
54628;BME280;40525;55.926;21.066;2023-03-18T06:08:00;101865.98;;;3.15;58.76
54628;BME280;40525;55.926;21.066;2023-03-18T06:10:28;101873.98;;;3.19;58.54
54628;BME280;40525;55.926;21.066;2023-03-18T06:12:56;101869.66;;;3.24;58.57
54628;BME280;40525;55.926;21.066;2023-03-18T06:15:23;101872.29;;;3.27;58.27
54628;BME280;40525;55.926;21.066;2023-03-18T06:17:51;101867.96;;;3.34;58.30
54628;BME280;40525;55.926;21.066;2023-03-18T06:20:19;101873.88;;;3.39;58.40
54628;BME280;40525;55.926;21.066;2023-03-18T06:22:46;101873.70;;;3.42;57.91
54628;BME280;40525;55.926;21.066;2023-03-18T06:25:19;101873.02;;;3.46;57.89
54628;BME280;40525;55.926;21.066;2023-03-18T06:27:48;101872.35;;;3.49;58.00
54628;BME280;40525;55.926;21.066;2023-03-18T06:30:17;101880.17;;;3.54;57.87
54628;BME280;40525;55.926;21.066;2023-03-18T06:32:45;101881.76;;;3.58;57.77
54628;BME280;40525;55.926;21.066;2023-03-18T06:35:14;101881.93;;;3.64;57.85
54628;BME280;40525;55.926;21.066;2023-03-18T06:37:44;101867.33;;;3.62;57.64
54628;BME280;40525;55.926;21.066;2023-03-18T06:40:11;101878.83;;;3.74;57.75
54628;BME280;40525;55.926;21.066;2023-03-18T06:42:39;101876.91;;;3.79;57.46
54628;BME280;40525;55.926;21.066;2023-03-18T06:45:12;101877.27;;;3.84;57.56
54628;BME280;40525;55.926;21.066;2023-03-18T06:47:45;101877.45;;;3.89;57.39
54628;BME280;40525;55.926;21.066;2023-03-18T06:50:12;101872.41;;;3.95;57.15
54628;BME280;40525;55.926;21.066;2023-03-18T06:52:40;101875.71;;;3.99;56.73
54628;BME280;40525;55.926;21.066;2023-03-18T06:55:10;101871.70;;;4.04;57.22
54628;BME280;40525;55.926;21.066;2023-03-18T06:57:39;101874.16;;;4.09;56.96
54628;BME280;40525;55.926;21.066;2023-03-18T07:00:08;101866.15;;;4.13;56.49
54628;BME280;40525;55.926;21.066;2023-03-18T07:02:36;101873.96;;;4.17;56.27
54628;BME280;40525;55.926;21.066;2023-03-18T07:05:06;101871.19;;;4.22;56.13
54628;BME280;40525;55.926;21.066;2023-03-18T07:07:34;101873.45;;;4.28;56.09
54628;BME280;40525;55.926;21.066;2023-03-18T07:10:06;101872.39;;;4.36;55.59
54628;BME280;40525;55.926;21.066;2023-03-18T07:12:33;101870.29;;;4.41;55.56
54628;BME280;40525;55.926;21.066;2023-03-18T07:15:03;101867.14;;;4.49;55.31
54628;BME280;40525;55.926;21.066;2023-03-18T07:17:30;101867.30;;;4.56;55.26
54628;BME280;40525;55.926;21.066;2023-03-18T07:19:58;101865.89;;;4.62;55.14
54628;BME280;40525;55.926;21.066;2023-03-18T07:22:25;101857.34;;;4.67;54.70
54628;BME280;40525;55.926;21.066;2023-03-18T07:24:53;101874.05;;;4.73;54.32
54628;BME280;40525;55.926;21.066;2023-03-18T07:27:25;101871.42;;;4.79;54.15
54628;BME280;40525;55.926;21.066;2023-03-18T07:29:53;101869.67;;;4.83;54.10
54628;BME280;40525;55.926;21.066;2023-03-18T07:32:22;101863.38;;;4.88;54.31
54628;BME280;40525;55.926;21.066;2023-03-18T07:34:49;101859.17;;;4.92;54.60
54628;BME280;40525;55.926;21.066;2023-03-18T07:37:16;101863.86;;;4.98;54.19
54628;BME280;40525;55.926;21.066;2023-03-18T07:39:43;101858.96;;;5.03;53.97
54628;BME280;40525;55.926;21.066;2023-03-18T07:42:10;101857.72;;;5.11;54.45
54628;BME280;40525;55.926;21.066;2023-03-18T07:44:43;101860.45;;;5.19;53.68
54628;BME280;40525;55.926;21.066;2023-03-18T07:47:11;101856.43;;;5.24;54.08
54628;BME280;40525;55.926;21.066;2023-03-18T07:49:40;101852.55;;;5.30;54.05
54628;BME280;40525;55.926;21.066;2023-03-18T07:52:09;101860.40;;;5.33;53.58
54628;BME280;40525;55.926;21.066;2023-03-18T07:54:36;101855.83;;;5.37;53.35
54628;BME280;40525;55.926;21.066;2023-03-18T07:57:03;101854.77;;;5.42;53.41
54628;BME280;40525;55.926;21.066;2023-03-18T07:59:31;101855.58;;;5.48;52.61
54628;BME280;40525;55.926;21.066;2023-03-18T08:01:58;101851.38;;;5.54;52.58
54628;BME280;40525;55.926;21.066;2023-03-18T08:04:25;101849.24;;;5.59;52.68
54628;BME280;40525;55.926;21.066;2023-03-18T08:06:53;101851.11;;;5.65;52.75
54628;BME280;40525;55.926;21.066;2023-03-18T08:09:21;101846.20;;;5.70;52.85
54628;BME280;40525;55.926;21.066;2023-03-18T08:11:48;101852.80;;;5.77;52.66
54628;BME280;40525;55.926;21.066;2023-03-18T08:14:15;101845.77;;;5.82;52.10
54628;BME280;40525;55.926;21.066;2023-03-18T08:16:42;101852.01;;;5.88;52.35
54628;BME280;40525;55.926;21.066;2023-03-18T08:19:09;101843.77;;;5.93;52.12
54628;BME280;40525;55.926;21.066;2023-03-18T08:21:37;101839.90;;;5.99;52.42
54628;BME280;40525;55.926;21.066;2023-03-18T08:24:05;101836.54;;;6.05;52.46
54628;BME280;40525;55.926;21.066;2023-03-18T08:26:33;101839.61;;;6.13;52.51
54628;BME280;40525;55.926;21.066;2023-03-18T08:29:01;101839.01;;;6.21;52.66
54628;BME280;40525;55.926;21.066;2023-03-18T08:31:28;101833.70;;;6.28;51.59
54628;BME280;40525;55.926;21.066;2023-03-18T08:33:56;101831.73;;;6.32;51.09
54628;BME280;40525;55.926;21.066;2023-03-18T08:36:25;101839.02;;;6.40;50.52
54628;BME280;40525;55.926;21.066;2023-03-18T08:38:54;101830.36;;;6.48;50.87
54628;BME280;40525;55.926;21.066;2023-03-18T08:41:22;101826.40;;;6.58;50.87
54628;BME280;40525;55.926;21.066;2023-03-18T08:43:52;101824.22;;;6.66;50.49
54628;BME280;40525;55.926;21.066;2023-03-18T08:46:21;101822.70;;;6.76;50.24
54628;BME280;40525;55.926;21.066;2023-03-18T08:48:48;101817.35;;;6.86;49.97
54628;BME280;40525;55.926;21.066;2023-03-18T08:51:15;101818.48;;;6.92;49.58
54628;BME280;40525;55.926;21.066;2023-03-18T08:53:42;101820.30;;;7.01;49.19
54628;BME280;40525;55.926;21.066;2023-03-18T08:56:10;101817.05;;;7.09;48.95
54628;BME280;40525;55.926;21.066;2023-03-18T08:58:38;101817.14;;;7.15;49.21
54628;BME280;40525;55.926;21.066;2023-03-18T09:01:05;101816.89;;;7.20;49.10
54628;BME280;40525;55.926;21.066;2023-03-18T09:03:36;101825.58;;;7.24;48.31
54628;BME280;40525;55.926;21.066;2023-03-18T09:06:04;101821.17;;;7.27;48.71
54628;BME280;40525;55.926;21.066;2023-03-18T09:08:32;101820.03;;;7.33;48.96
54628;BME280;40525;55.926;21.066;2023-03-18T09:10:59;101820.81;;;7.40;48.72
54628;BME280;40525;55.926;21.066;2023-03-18T09:13:26;101816.89;;;7.46;48.09
54628;BME280;40525;55.926;21.066;2023-03-18T09:15:53;101818.02;;;7.51;48.11
54628;BME280;40525;55.926;21.066;2023-03-18T09:18:20;101816.02;;;7.56;47.31
54628;BME280;40525;55.926;21.066;2023-03-18T09:20:48;101820.88;;;7.59;47.40
54628;BME280;40525;55.926;21.066;2023-03-18T09:23:16;101823.75;;;7.65;47.82
54628;BME280;40525;55.926;21.066;2023-03-18T09:25:47;101817.52;;;7.72;47.18
54628;BME280;40525;55.926;21.066;2023-03-18T09:28:16;101823.05;;;7.76;46.79
54628;BME280;40525;55.926;21.066;2023-03-18T09:30:43;101823.13;;;7.81;47.08
54628;BME280;40525;55.926;21.066;2023-03-18T09:33:10;101812.58;;;7.86;46.62
54628;BME280;40525;55.926;21.066;2023-03-18T09:35:38;101804.34;;;7.86;45.85
54628;BME280;40525;55.926;21.066;2023-03-18T09:38:05;101806.96;;;7.87;46.37
54628;BME280;40525;55.926;21.066;2023-03-18T09:40:35;101808.27;;;7.91;46.70
54628;BME280;40525;55.926;21.066;2023-03-18T09:43:26;101801.06;;;7.94;46.70
54628;BME280;40525;55.926;21.066;2023-03-18T09:46:00;101802.08;;;7.96;46.55
54628;BME280;40525;55.926;21.066;2023-03-18T09:54:05;101787.54;;;8.06;45.78
54628;BME280;40525;55.926;21.066;2023-03-18T09:56:36;101788.76;;;8.06;45.97
54628;BME280;40525;55.926;21.066;2023-03-18T10:01:40;101772.00;;;8.04;45.41
54628;BME280;40525;55.926;21.066;2023-03-18T10:04:20;101773.26;;;8.01;45.35
54628;BME280;40525;55.926;21.066;2023-03-18T10:06:53;101776.22;;;8.02;44.96
54628;BME280;40525;55.926;21.066;2023-03-18T10:12:09;101761.06;;;8.08;45.20
54628;BME280;40525;55.926;21.066;2023-03-18T10:14:44;101764.16;;;8.11;44.63
54628;BME280;40525;55.926;21.066;2023-03-18T10:17:18;101768.45;;;8.14;44.65
54628;BME280;40525;55.926;21.066;2023-03-18T10:19:55;101765.25;;;8.18;44.52
54628;BME280;40525;55.926;21.066;2023-03-18T10:22:36;101765.20;;;8.21;44.21
54628;BME280;40525;55.926;21.066;2023-03-18T10:30:29;101757.83;;;8.31;43.32
54628;BME280;40525;55.926;21.066;2023-03-18T10:33:12;101753.13;;;8.38;43.20
54628;BME280;40525;55.926;21.066;2023-03-18T10:38:47;101745.41;;;8.48;41.97
54628;BME280;40525;55.926;21.066;2023-03-18T10:41:28;101743.98;;;8.50;41.62
54628;BME280;40525;55.926;21.066;2023-03-18T10:43:56;101741.47;;;8.53;40.95
54628;BME280;40525;55.926;21.066;2023-03-18T10:46:24;101740.36;;;8.55;41.26
54628;BME280;40525;55.926;21.066;2023-03-18T10:49:11;101738.36;;;8.59;40.75
54628;BME280;40525;55.926;21.066;2023-03-18T10:54:39;101737.66;;;8.84;40.29
54628;BME280;40525;55.926;21.066;2023-03-18T10:57:12;101731.77;;;8.96;40.59
54628;BME280;40525;55.926;21.066;2023-03-18T10:59:40;101727.64;;;9.08;40.41
54628;BME280;40525;55.926;21.066;2023-03-18T11:04:59;101725.51;;;9.32;40.01
54628;BME280;40525;55.926;21.066;2023-03-18T11:07:30;101724.25;;;9.41;39.36
54628;BME280;40525;55.926;21.066;2023-03-18T11:10:15;101719.08;;;9.44;38.98
54628;BME280;40525;55.926;21.066;2023-03-18T11:12:43;101717.67;;;9.44;39.22
54628;BME280;40525;55.926;21.066;2023-03-18T11:15:11;101714.83;;;9.45;40.24
54628;BME280;40525;55.926;21.066;2023-03-18T11:17:39;101715.73;;;9.51;39.78
54628;BME280;40525;55.926;21.066;2023-03-18T11:20:30;101715.48;;;9.54;39.51
54628;BME280;40525;55.926;21.066;2023-03-18T11:23:04;101712.79;;;9.56;39.18
54628;BME280;40525;55.926;21.066;2023-03-18T11:25:38;101712.98;;;9.63;39.31
54628;BME280;40525;55.926;21.066;2023-03-18T11:28:26;101713.33;;;9.69;38.72
54628;BME280;40525;55.926;21.066;2023-03-18T11:31:04;101708.36;;;9.78;38.76
54628;BME280;40525;55.926;21.066;2023-03-18T11:33:32;101699.81;;;9.83;38.58
54628;BME280;40525;55.926;21.066;2023-03-18T11:36:06;101693.67;;;9.83;38.33
54628;BME280;40525;55.926;21.066;2023-03-18T11:38:35;101693.21;;;9.80;38.92
54628;BME280;40525;55.926;21.066;2023-03-18T11:41:15;101690.52;;;9.76;38.97
54628;BME280;40525;55.926;21.066;2023-03-18T11:46:32;101684.35;;;9.64;38.82
54628;BME280;40525;55.926;21.066;2023-03-18T11:49:02;101680.03;;;9.54;38.58
54628;BME280;40525;55.926;21.066;2023-03-18T11:51:53;101676.45;;;9.50;38.97
54628;BME280;40525;55.926;21.066;2023-03-18T11:57:49;101673.56;;;9.46;39.75
54628;BME280;40525;55.926;21.066;2023-03-18T12:03:20;101674.59;;;9.47;39.95
54628;BME280;40525;55.926;21.066;2023-03-18T12:14:14;101654.84;;;9.64;40.69
54628;BME280;40525;55.926;21.066;2023-03-18T12:19:41;101645.58;;;9.82;40.16
54628;BME280;40525;55.926;21.066;2023-03-18T12:27:33;101646.15;;;10.11;39.26
54628;BME280;40525;55.926;21.066;2023-03-18T12:33:06;101641.67;;;10.33;38.26
54628;BME280;40525;55.926;21.066;2023-03-18T12:36:06;101638.20;;;10.44;37.97
54628;BME280;40525;55.926;21.066;2023-03-18T12:42:26;101637.29;;;10.51;37.98
54628;BME280;40525;55.926;21.066;2023-03-18T12:47:42;101625.01;;;10.50;36.82
54628;BME280;40525;55.926;21.066;2023-03-18T12:50:40;101623.24;;;10.50;36.27
54628;BME280;40525;55.926;21.066;2023-03-18T12:55:49;101612.09;;;10.64;36.74
54628;BME280;40525;55.926;21.066;2023-03-18T12:58:24;101610.80;;;10.71;36.88
54628;BME280;40525;55.926;21.066;2023-03-18T13:01:03;101606.89;;;10.78;36.81
54628;BME280;40525;55.926;21.066;2023-03-18T13:03:41;101600.59;;;10.83;36.69
54628;BME280;40525;55.926;21.066;2023-03-18T13:06:19;101596.23;;;10.87;36.55
54628;BME280;40525;55.926;21.066;2023-03-18T13:11:47;101594.12;;;10.92;36.87
54628;BME280;40525;55.926;21.066;2023-03-18T13:14:28;101597.45;;;11.03;36.66
54628;BME280;40525;55.926;21.066;2023-03-18T13:16:59;101580.50;;;11.15;35.65
54628;BME280;40525;55.926;21.066;2023-03-18T13:19:27;101581.45;;;11.19;35.70
54628;BME280;40525;55.926;21.066;2023-03-18T13:22:27;101579.55;;;11.27;35.97
54628;BME280;40525;55.926;21.066;2023-03-18T13:36:02;101571.16;;;11.95;34.28
54628;BME280;40525;55.926;21.066;2023-03-18T13:38:37;101566.71;;;11.92;34.35
54628;BME280;40525;55.926;21.066;2023-03-18T13:41:50;101575.50;;;11.87;34.65
54628;BME280;40525;55.926;21.066;2023-03-18T13:44:35;101570.73;;;11.68;33.69
54628;BME280;40525;55.926;21.066;2023-03-18T13:47:05;101572.66;;;11.53;34.37
54628;BME280;40525;55.926;21.066;2023-03-18T13:49:36;101571.39;;;11.44;34.09
54628;BME280;40525;55.926;21.066;2023-03-18T13:52:21;101570.27;;;11.37;34.57
54628;BME280;40525;55.926;21.066;2023-03-18T13:54:49;101569.67;;;11.28;35.20
54628;BME280;40525;55.926;21.066;2023-03-18T14:00:30;101573.13;;;11.20;36.21
54628;BME280;40525;55.926;21.066;2023-03-18T14:03:04;101578.80;;;11.14;36.27
54628;BME280;40525;55.926;21.066;2023-03-18T14:05:36;101581.02;;;11.11;36.45
54628;BME280;40525;55.926;21.066;2023-03-18T14:14:04;101576.84;;;10.94;37.62
54628;BME280;40525;55.926;21.066;2023-03-18T14:21:51;101574.12;;;10.85;38.42
54628;BME280;40525;55.926;21.066;2023-03-18T14:24:24;101572.20;;;10.80;38.15
54628;BME280;40525;55.926;21.066;2023-03-18T14:29:44;101569.71;;;10.75;38.58
54628;BME280;40525;55.926;21.066;2023-03-18T14:40:40;101559.18;;;10.63;39.56
54628;BME280;40525;55.926;21.066;2023-03-18T14:43:17;101551.48;;;10.57;39.30
54628;BME280;40525;55.926;21.066;2023-03-18T14:45:46;101551.46;;;10.51;39.51
54628;BME280;40525;55.926;21.066;2023-03-18T14:48:32;101553.36;;;10.47;39.96
54628;BME280;40525;55.926;21.066;2023-03-18T14:51:03;101550.13;;;10.44;39.94
54628;BME280;40525;55.926;21.066;2023-03-18T14:54:01;101551.83;;;10.40;39.90
54628;BME280;40525;55.926;21.066;2023-03-18T14:56:36;101549.84;;;10.36;40.21